createdAt,value
2022-08-09T00:02:30.055Z,100283.06
2022-08-09T00:07:44.533Z,100308.03
2022-08-09T00:12:47.554Z,100276.72
2022-08-09T00:18:09.289Z,100289.69
2022-08-09T00:23:58.182Z,100267.09
2022-08-09T00:28:37.003Z,100281.59
2022-08-09T00:33:50.295Z,100289.13
2022-08-09T00:38:54.299Z,100267.63
2022-08-09T00:44:16.376Z,100248.28
2022-08-09T00:49:20.526Z,100265.47
2022-08-09T00:54:31.644Z,100275.38
2022-08-09T00:59:46.101Z,100244.59
2022-08-09T01:04:58.612Z,100266.22
2022-08-09T01:10:09.796Z,100275.78
2022-08-09T01:15:19.759Z,100277.13
2022-08-09T01:20:30.190Z,100267.88
2022-08-09T01:26:11.030Z,100301.69
2022-08-09T01:32:28.229Z,100263.94
2022-08-09T01:36:45.875Z,100295.03
2022-08-09T01:41:56.434Z,100312.25
2022-08-09T01:47:06.575Z,100304.06
2022-08-09T01:52:17.386Z,100261.53
2022-08-09T01:57:30.215Z,100295.50
2022-08-09T02:02:47.327Z,100261.38
2022-08-09T02:08:35.805Z,100269.69
2022-08-09T02:13:26.166Z,100263.69
2022-08-09T02:18:43.069Z,100255.53
2022-08-09T02:23:54.751Z,100250.38
2022-08-09T02:29:03.808Z,100287.28
2022-08-09T02:34:13.803Z,100196.91
2022-08-09T02:39:45.236Z,100233.22
2022-08-09T02:44:59.612Z,100211.06
2022-08-09T02:50:21.484Z,100305.63
2022-08-09T02:55:46.108Z,100286.28
2022-08-09T03:00:57.634Z,100309.81
2022-08-09T03:06:02.629Z,100299.97
2022-08-09T03:11:07.138Z,100274.81
2022-08-09T03:16:20.533Z,100286.34
2022-08-09T03:21:25.884Z,100297.81
2022-08-09T03:26:31.884Z,100258.97
2022-08-09T03:31:42.498Z,100305.44
2022-08-09T03:36:48.087Z,100282.75
2022-08-09T03:42:05.938Z,100266.09
2022-08-09T03:47:09.428Z,100248.88
2022-08-09T03:52:13.693Z,100268.56
2022-08-09T03:57:21.102Z,100323.25
2022-08-09T04:02:29.928Z,100324.06
2022-08-09T04:07:33.705Z,100302.72
2022-08-09T04:12:55.194Z,100254.06
2022-08-09T04:17:57.918Z,100295.59
2022-08-09T04:23:00.582Z,100297.25
2022-08-09T04:28:04.982Z,100339.53
2022-08-09T04:33:08.003Z,100308.41
2022-08-09T04:38:10.446Z,100315.84
2022-08-09T04:43:21.660Z,100288.78
2022-08-09T04:48:33.250Z,100320.78
2022-08-09T04:53:36.147Z,100315.56
2022-08-09T04:58:38.779Z,100184.94
2022-08-09T05:03:43.580Z,100331.63
2022-08-09T05:08:47.623Z,100328.22
2022-08-09T05:13:50.468Z,100367.22
2022-08-09T05:18:59.946Z,100367.97
2022-08-09T05:24:03.949Z,100349.59
2022-08-09T05:29:07.433Z,100262.38
2022-08-09T05:34:21.455Z,100329.41
2022-08-09T05:39:36.485Z,100372.63
2022-08-09T05:44:50.919Z,100373.22
2022-08-09T05:50:25.157Z,100355.75
2022-08-09T05:55:27.128Z,100334.00
2022-08-09T06:00:32.973Z,100377.28
2022-08-09T06:05:54.714Z,100346.13
2022-08-09T06:10:59.957Z,100361.13
2022-08-09T06:16:04.998Z,100355.19
2022-08-09T06:21:08.587Z,100328.28
2022-08-09T06:26:12.938Z,100351.84
2022-08-09T06:31:15.373Z,100358.81
2022-08-09T06:36:18.366Z,100356.41
2022-08-09T06:41:21.591Z,100296.41
2022-08-09T06:46:40.402Z,100262.56
2022-08-09T06:51:43.748Z,100352.97
2022-08-09T06:56:48.467Z,100361.19
2022-08-09T07:01:54.405Z,100348.25
2022-08-09T07:07:01.074Z,100356.81
2022-08-09T07:12:07.578Z,100349.47
2022-08-09T07:17:21.689Z,100354.06
2022-08-09T07:22:34.929Z,100346.25
2022-08-09T07:27:42.898Z,100350.91
2022-08-09T07:32:55.455Z,100352.50
2022-08-09T07:37:59.366Z,100346.94
2022-08-09T07:43:02.136Z,100344.78
2022-08-09T07:48:05.208Z,100371.66
2022-08-09T07:53:08.591Z,100362.63
2022-08-09T07:58:13.239Z,100376.59
2022-08-09T08:03:16.574Z,100370.78
2022-08-09T08:09:01.275Z,100365.78
2022-08-09T08:13:56.907Z,100359.50
2022-08-09T08:19:03.241Z,100368.19
2022-08-09T08:24:11.515Z,100364.47
2022-08-09T08:29:14.821Z,100367.88
2022-08-09T08:34:25.507Z,100376.22
2022-08-09T08:39:28.367Z,100361.72
2022-08-09T08:44:31.471Z,100374.91
2022-08-09T08:49:46.691Z,100365.94
2022-08-09T08:54:57.121Z,100332.59
2022-08-09T08:59:59.535Z,100353.41
2022-08-09T09:05:02.961Z,100341.97
2022-08-09T09:10:12.830Z,100343.13
2022-08-09T09:15:28.592Z,100365.41
2022-08-09T09:20:36.904Z,100358.06
2022-08-09T09:26:02.187Z,100316.19
2022-08-09T09:31:06.592Z,100332.41
2022-08-09T09:36:21.991Z,100306.03
2022-08-09T09:41:25.043Z,100333.28
2022-08-09T09:46:57.973Z,100327.16
2022-08-09T09:52:06.939Z,100329.09
2022-08-09T09:58:00.801Z,100311.88
2022-08-09T10:02:52.044Z,100303.88
2022-08-09T10:08:26.920Z,100304.72
2022-08-09T10:13:43.068Z,100308.22
2022-08-09T10:18:54.505Z,100315.25
2022-08-09T10:23:58.494Z,100304.94
2022-08-09T10:29:22.483Z,100296.81
2022-08-09T10:34:33.483Z,100287.97
2022-08-09T10:39:48.915Z,100288.91
2022-08-09T10:45:00.100Z,100281.03
2022-08-09T10:50:30.787Z,100287.06
2022-08-09T10:55:58.561Z,100248.91
2022-08-09T11:03:06.609Z,100253.72
2022-08-09T11:06:25.095Z,100283.81
2022-08-09T11:12:10.578Z,100200.13
2022-08-09T11:17:19.236Z,100270.03
2022-08-09T11:22:42.415Z,100270.50
2022-08-09T11:28:02.323Z,100262.84
2022-08-09T11:33:12.341Z,100247.69
2022-08-09T11:38:28.882Z,100224.31
2022-08-09T11:43:37.362Z,100250.88
2022-08-09T11:48:58.326Z,100243.91
2022-08-09T11:54:28.263Z,100222.16
2022-08-09T11:59:36.062Z,100226.25
2022-08-09T12:04:41.133Z,100226.41
2022-08-09T12:09:50.545Z,100205.09
2022-08-09T12:15:07.860Z,100222.75
2022-08-09T12:20:23.776Z,100198.56
2022-08-09T12:25:35.644Z,100203.78
2022-08-09T12:30:40.617Z,100218.66
2022-08-09T12:35:44.532Z,100174.50
2022-08-09T12:40:51.916Z,100212.59
2022-08-09T12:46:00.512Z,100193.19
2022-08-09T12:51:04.278Z,100195.53
2022-08-09T12:56:39.258Z,100181.78
2022-08-09T13:01:49.078Z,100167.97
2022-08-09T13:06:54.081Z,100140.09
2022-08-09T13:12:03.661Z,100170.69
2022-08-09T13:17:16.038Z,100152.50
2022-08-09T13:22:35.196Z,100151.44
2022-08-09T13:27:55.333Z,100135.50
2022-08-09T13:32:59.034Z,100140.75
2022-08-09T13:38:02.601Z,100153.28
2022-08-09T13:43:10.041Z,100129.63
2022-08-09T13:48:18.126Z,100125.66
2022-08-09T13:53:20.632Z,100139.25
2022-08-09T13:58:41.408Z,100144.25
2022-08-09T14:04:02.623Z,100139.78
2022-08-09T14:09:07.065Z,100114.81
2022-08-09T14:14:24.006Z,100093.06
2022-08-09T14:19:30.273Z,100115.03
2022-08-09T14:24:35.913Z,100101.56
2022-08-09T14:30:34.903Z,100101.41
2022-08-09T14:35:06.086Z,100067.13
2022-08-09T14:40:10.610Z,100056.91
2022-08-09T14:46:57.173Z,100081.16
2022-08-09T14:50:38.116Z,100096.06
2022-08-09T14:55:49.940Z,100105.19
2022-08-09T15:00:53.002Z,100092.47
2022-08-09T15:06:04.038Z,100060.25
2022-08-09T15:11:07.471Z,100064.53
2022-08-09T15:16:10.543Z,100078.22
2022-08-09T15:21:57.382Z,100092.25
2022-08-09T15:26:35.871Z,100094.97
2022-08-09T15:31:48.005Z,100068.31
2022-08-09T15:36:50.469Z,100096.94
2022-08-09T15:41:55.187Z,100089.53
2022-08-09T15:47:05.294Z,100065.72
2022-08-09T15:52:08.675Z,100055.03
2022-08-09T15:57:15.132Z,100079.78
2022-08-09T16:02:27.043Z,100103.13
2022-08-09T16:07:29.954Z,100069.41
2022-08-09T16:12:50.102Z,100088.66
2022-08-09T16:17:53.522Z,100086.63
2022-08-09T16:22:55.935Z,100099.59
2022-08-09T16:27:59.229Z,100122.75
2022-08-09T16:33:10.762Z,100099.09
2022-08-09T16:38:13.257Z,100115.94
2022-08-09T16:43:15.801Z,100127.72
2022-08-09T16:48:40.515Z,100116.69
2022-08-09T16:54:24.852Z,100117.66
2022-08-09T16:59:10.565Z,100074.66
2022-08-09T17:04:25.589Z,100119.25
2022-08-09T17:09:46.067Z,100105.38
2022-08-09T17:14:54.873Z,100107.59
2022-08-09T17:20:28.564Z,100138.59
2022-08-09T17:25:23.597Z,100143.63
2022-08-09T17:30:31.007Z,100133.63
2022-08-09T17:35:34.247Z,100144.84
2022-08-09T17:40:38.699Z,100120.88
2022-08-09T17:46:03.069Z,100148.72
2022-08-09T17:51:09.591Z,100145.16
2022-08-09T17:56:19.678Z,100144.94
2022-08-09T18:01:23.538Z,100172.34
2022-08-09T18:06:31.698Z,100164.56
2022-08-09T18:12:05.575Z,100164.88
2022-08-09T18:17:01.989Z,100186.75
2022-08-09T18:22:04.807Z,100174.63
2022-08-09T18:27:09.029Z,100184.59
2022-08-09T18:32:11.722Z,100210.50
2022-08-09T18:37:47.785Z,100198.47
2022-08-09T18:42:37.711Z,100224.34
2022-08-09T18:47:40.146Z,100193.09
2022-08-09T18:52:44.512Z,100220.22
2022-08-09T18:57:56.472Z,100237.28
2022-08-09T19:02:59.255Z,100248.06
2022-08-09T19:08:10.171Z,100259.44
2022-08-09T19:13:20.954Z,100211.88
2022-08-09T19:18:43.738Z,100237.34
2022-08-09T19:24:31.821Z,100215.84
2022-08-09T19:29:18.091Z,100215.34
2022-08-09T19:34:24.457Z,100226.06
2022-08-09T19:40:02.311Z,100225.59
2022-08-09T19:44:51.534Z,100245.91
2022-08-09T19:50:08.671Z,100220.78
2022-08-09T19:55:19.584Z,100242.44
2022-08-09T20:00:28.448Z,100242.09
2022-08-09T20:05:31.078Z,100264.47
2022-08-09T20:10:48.705Z,100269.47
2022-08-09T20:16:37.202Z,100275.78
2022-08-09T20:21:13.860Z,100221.97
2022-08-09T20:26:18.617Z,100250.50
2022-08-09T20:31:23.362Z,100258.22
2022-08-09T20:36:27.385Z,100260.47
2022-08-09T20:41:35.291Z,100254.91
2022-08-09T20:46:43.302Z,100253.28
2022-08-09T20:51:50.510Z,100242.81
2022-08-09T20:56:54.055Z,100243.13
2022-08-09T21:01:56.821Z,100220.59
2022-08-09T21:06:59.379Z,100218.66
2022-08-09T21:12:17.902Z,100249.06
2022-08-09T21:18:11.395Z,100231.03
2022-08-09T21:22:54.542Z,100248.03
2022-08-09T21:27:58.111Z,100259.56
2022-08-09T21:33:05.898Z,100235.06
2022-08-09T21:38:09.720Z,100262.84
2022-08-09T21:43:12.901Z,100246.09
2022-08-09T21:48:24.247Z,100224.16
2022-08-09T21:53:40.066Z,100194.50
2022-08-09T21:58:44.713Z,100258.44
2022-08-09T22:03:48.337Z,100260.28
2022-08-09T22:09:02.026Z,100198.75
2022-08-09T22:14:04.771Z,100169.84
2022-08-09T22:19:58.077Z,100256.47
2022-08-09T22:24:35.861Z,100251.56
2022-08-09T22:29:48.373Z,100236.97
2022-08-09T22:35:02.564Z,100247.28
2022-08-09T22:40:10.845Z,100242.91
2022-08-09T22:48:16.725Z,100246.47
2022-08-09T22:50:52.751Z,100182.34
2022-08-09T22:56:30.710Z,100236.41
2022-08-09T23:01:18.170Z,100241.13
2022-08-09T23:06:32.496Z,100235.75
2022-08-09T23:11:38.355Z,100220.75
2022-08-09T23:16:40.791Z,100233.47
2022-08-09T23:21:43.533Z,100163.91
2022-08-09T23:26:46.109Z,100181.09
2022-08-09T23:31:51.314Z,100237.94
2022-08-09T23:36:56.623Z,100220.69
2022-08-09T23:41:59.905Z,100207.09
2022-08-09T23:47:02.597Z,100158.66
2022-08-09T23:52:05.285Z,100147.84
2022-08-09T23:57:07.818Z,100199.25
